createdAt,value
2023-05-23T00:01:07.166Z,5.45
2023-05-23T00:03:34.828Z,4.60
2023-05-23T00:06:04.543Z,4.30
2023-05-23T00:08:32.046Z,5.97
2023-05-23T00:10:59.501Z,5.32
2023-05-23T00:13:26.973Z,3.85
2023-05-23T00:15:54.480Z,4.20
2023-05-23T00:18:24.705Z,4.43
2023-05-23T00:20:53.209Z,5.57
2023-05-23T00:23:22.547Z,6.25
2023-05-23T00:25:53.410Z,5.97
2023-05-23T00:28:21.309Z,5.03
2023-05-23T00:30:50.036Z,6.10
2023-05-23T00:33:17.794Z,4.63
2023-05-23T00:35:45.239Z,6.32
2023-05-23T00:38:12.963Z,4.85
2023-05-23T00:40:41.730Z,5.53
2023-05-23T00:43:09.305Z,4.10
2023-05-23T00:45:36.872Z,4.90
2023-05-23T00:48:07.298Z,6.20
2023-05-23T00:50:36.173Z,5.70
2023-05-23T00:53:04.862Z,5.13
2023-05-23T00:55:32.553Z,6.25
2023-05-23T00:58:01.629Z,7.60
2023-05-23T01:00:30.275Z,5.72
2023-05-23T01:02:58.053Z,5.85
2023-05-23T01:05:25.951Z,3.90
2023-05-23T01:07:53.828Z,7.72
2023-05-23T01:10:24.311Z,5.65
2023-05-23T01:13:02.006Z,4.75
2023-05-23T01:15:37.147Z,7.18
2023-05-23T01:18:09.548Z,6.32
2023-05-23T01:20:45.078Z,3.97
2023-05-23T01:23:43.997Z,5.63
2023-05-23T01:26:26.241Z,5.78
2023-05-23T01:28:59.218Z,5.00
2023-05-23T01:31:30.834Z,5.72
2023-05-23T01:33:58.904Z,4.97
2023-05-23T01:36:26.921Z,5.13
2023-05-23T01:38:54.418Z,5.90
2023-05-23T01:41:21.992Z,8.43
2023-05-23T01:43:49.513Z,4.57
2023-05-23T01:46:18.982Z,4.25
2023-05-23T01:48:47.816Z,9.88
2023-05-23T01:51:15.659Z,6.60
2023-05-23T01:53:52.292Z,5.72
2023-05-23T01:56:21.738Z,4.50
2023-05-23T01:58:49.395Z,5.22
2023-05-23T02:01:17.084Z,6.68
2023-05-23T02:03:44.562Z,6.40
2023-05-23T02:06:12.026Z,5.78
2023-05-23T02:08:39.469Z,4.80
2023-05-23T02:11:08.815Z,7.20
2023-05-23T02:13:36.308Z,4.35
2023-05-23T02:16:04.095Z,4.97
2023-05-23T02:18:31.532Z,8.02
2023-05-23T02:20:59.116Z,7.00
2023-05-23T02:23:26.734Z,6.72
2023-05-23T02:25:54.208Z,6.20
2023-05-23T02:28:22.995Z,4.57
2023-05-23T02:30:50.511Z,4.50
2023-05-23T02:33:18.021Z,5.45
2023-05-23T02:35:45.483Z,4.90
2023-05-23T02:38:13.048Z,5.05
2023-05-23T02:40:40.487Z,6.75
2023-05-23T02:43:07.928Z,6.45
2023-05-23T02:45:36.799Z,6.93
2023-05-23T02:48:04.301Z,5.90
2023-05-23T02:50:31.913Z,5.53
2023-05-23T02:52:59.357Z,8.85
2023-05-23T02:55:26.879Z,6.03
2023-05-23T02:57:54.329Z,5.80
2023-05-23T03:00:21.816Z,6.13
2023-05-23T03:02:50.630Z,8.05
2023-05-23T03:05:18.353Z,4.97
2023-05-23T03:07:45.939Z,5.20
2023-05-23T03:10:13.512Z,6.25
2023-05-23T03:12:41.076Z,7.68
2023-05-23T03:15:09.447Z,8.45
2023-05-23T03:17:37.192Z,4.97
2023-05-23T03:20:09.827Z,6.53
2023-05-23T03:22:37.511Z,4.68
2023-05-23T03:25:05.913Z,6.45
2023-05-23T03:27:33.466Z,9.40
2023-05-23T03:30:01.005Z,5.45
2023-05-23T03:32:28.581Z,5.17
2023-05-23T03:34:56.355Z,9.23
2023-05-23T03:37:25.307Z,6.13
2023-05-23T03:39:52.822Z,6.65
2023-05-23T03:42:20.361Z,6.57
2023-05-23T03:44:47.867Z,7.15
2023-05-23T03:47:15.372Z,9.77
2023-05-23T03:49:42.930Z,6.03
2023-05-23T03:52:10.445Z,9.45
2023-05-23T03:54:39.333Z,7.53
2023-05-23T03:57:07.069Z,7.15
2023-05-23T03:59:35.134Z,5.23
2023-05-23T04:02:02.709Z,10.23
2023-05-23T04:04:31.105Z,5.77
2023-05-23T04:06:59.148Z,9.17
2023-05-23T04:09:26.672Z,9.70
2023-05-23T04:11:56.097Z,6.07
2023-05-23T04:14:25.341Z,7.07
2023-05-23T04:16:52.845Z,10.33
2023-05-23T04:19:20.809Z,9.60
2023-05-23T04:21:48.263Z,7.33
2023-05-23T04:24:15.749Z,8.87
2023-05-23T04:26:43.396Z,9.33
2023-05-23T04:29:12.554Z,6.30
2023-05-23T04:31:40.041Z,8.40
2023-05-23T04:34:08.086Z,8.20
2023-05-23T04:36:38.027Z,8.90
2023-05-23T04:39:05.585Z,6.70
2023-05-23T04:41:33.226Z,8.37
2023-05-23T04:44:00.692Z,10.07
2023-05-23T04:46:29.439Z,5.77
2023-05-23T04:48:58.717Z,6.55
2023-05-23T04:51:26.190Z,5.77
2023-05-23T04:53:53.628Z,8.13
2023-05-23T04:56:22.327Z,10.87
2023-05-23T04:58:49.794Z,8.40
2023-05-23T05:01:17.401Z,5.70
2023-05-23T05:03:46.243Z,8.93
2023-05-23T05:06:14.580Z,7.27
2023-05-23T05:08:42.069Z,10.53
2023-05-23T05:11:10.384Z,20.03
2023-05-23T05:13:37.821Z,16.63
2023-05-23T05:16:05.630Z,29.40
2023-05-23T05:18:33.215Z,11.37
2023-05-23T05:21:01.959Z,13.30
2023-05-23T05:23:30.199Z,10.47
2023-05-23T05:25:57.778Z,8.97
2023-05-23T05:28:25.344Z,8.67
2023-05-23T05:30:54.390Z,9.50
2023-05-23T05:33:23.592Z,10.63
2023-05-23T05:35:52.266Z,12.48
2023-05-23T05:38:21.143Z,10.32
2023-05-23T05:40:48.555Z,18.63
2023-05-23T05:43:16.038Z,10.50
2023-05-23T05:45:43.656Z,7.33
2023-05-23T05:48:11.851Z,6.47
2023-05-23T05:50:39.898Z,8.75
2023-05-23T05:53:08.208Z,8.70
2023-05-23T05:55:36.998Z,11.50
2023-05-23T05:58:04.468Z,8.00
2023-05-23T06:00:32.064Z,11.43
2023-05-23T06:02:59.715Z,9.20
2023-05-23T06:05:27.522Z,9.53
2023-05-23T06:07:54.984Z,9.23
2023-05-23T06:10:22.437Z,10.95
2023-05-23T06:12:51.344Z,6.80
2023-05-23T06:15:19.140Z,7.63
2023-05-23T06:17:46.609Z,6.20
2023-05-23T06:20:14.204Z,8.07
2023-05-23T06:22:42.216Z,9.30
2023-05-23T06:25:10.094Z,9.80
2023-05-23T06:27:38.097Z,10.93
2023-05-23T06:30:08.219Z,12.60
2023-05-23T06:32:35.645Z,15.27
2023-05-23T06:35:03.186Z,11.53
2023-05-23T06:37:30.817Z,10.97
2023-05-23T06:39:58.473Z,9.20
2023-05-23T06:42:25.905Z,14.77
2023-05-23T06:44:53.356Z,15.00
2023-05-23T06:47:23.242Z,13.65
2023-05-23T06:49:50.762Z,9.55
2023-05-23T06:52:18.169Z,8.80
2023-05-23T06:54:45.627Z,5.60
2023-05-23T06:57:13.066Z,5.97
2023-05-23T06:59:40.563Z,5.90
2023-05-23T07:02:07.988Z,6.68
2023-05-23T07:04:36.748Z,6.18
2023-05-23T07:07:04.312Z,9.43
2023-05-23T07:09:31.786Z,6.10
2023-05-23T07:11:59.275Z,8.95
2023-05-23T07:14:26.690Z,7.15
2023-05-23T07:16:54.229Z,11.02
2023-05-23T07:19:21.747Z,7.43
2023-05-23T07:21:50.650Z,6.65
2023-05-23T07:24:18.079Z,11.05
2023-05-23T07:26:45.732Z,6.95
2023-05-23T07:29:13.172Z,9.23
2023-05-23T07:31:40.787Z,9.02
2023-05-23T07:34:08.320Z,8.63
2023-05-23T07:36:37.885Z,9.82
2023-05-23T07:39:07.003Z,6.18
2023-05-23T07:41:34.488Z,14.00
2023-05-23T07:44:01.938Z,8.13
2023-05-23T07:46:29.436Z,7.68
2023-05-23T07:48:57.148Z,8.95
2023-05-23T07:51:24.749Z,6.65
2023-05-23T07:53:52.271Z,7.03
2023-05-23T07:56:21.403Z,6.07
2023-05-23T07:58:48.848Z,6.68
2023-05-23T08:01:16.271Z,8.20
2023-05-23T08:03:43.695Z,7.50
2023-05-23T08:06:11.168Z,10.15
2023-05-23T08:08:38.733Z,8.32
2023-05-23T08:11:06.532Z,6.28
2023-05-23T08:13:35.607Z,7.03
2023-05-23T08:16:03.189Z,8.20
2023-05-23T08:18:31.142Z,7.35
2023-05-23T08:20:58.708Z,7.20
2023-05-23T08:23:26.433Z,6.47
2023-05-23T08:25:53.898Z,11.82
2023-05-23T08:28:21.368Z,10.10
2023-05-23T08:30:50.279Z,6.75
2023-05-23T08:33:17.740Z,7.28
2023-05-23T08:35:45.272Z,8.75
2023-05-23T08:38:13.128Z,6.00
2023-05-23T08:40:43.331Z,6.95
2023-05-23T08:43:12.408Z,8.07
2023-05-23T08:45:40.202Z,8.40
2023-05-23T08:48:11.788Z,10.48
2023-05-23T08:50:41.781Z,11.40
2023-05-23T08:53:10.713Z,6.95
2023-05-23T08:55:39.170Z,6.03
2023-05-23T08:58:07.245Z,7.00
2023-05-23T09:00:35.512Z,7.38
2023-05-23T09:03:03.379Z,8.18
2023-05-23T09:05:32.279Z,6.10
2023-05-23T09:07:59.794Z,6.85
2023-05-23T09:10:29.916Z,7.38
2023-05-23T09:12:58.412Z,7.40
2023-05-23T09:15:27.394Z,7.20
2023-05-23T09:17:54.986Z,9.82
2023-05-23T09:20:23.024Z,8.40
2023-05-23T09:22:51.855Z,10.18
2023-05-23T09:25:19.382Z,7.60
2023-05-23T09:27:48.338Z,6.68
2023-05-23T09:30:18.790Z,9.80
2023-05-23T09:33:00.219Z,9.90
2023-05-23T09:35:30.119Z,8.80
2023-05-23T09:38:00.220Z,9.75
2023-05-23T09:40:31.655Z,6.72
2023-05-23T09:43:03.993Z,6.57
2023-05-23T09:45:32.422Z,9.32
2023-05-23T09:48:00.006Z,7.72
2023-05-23T09:50:33.394Z,8.32
2023-05-23T09:53:02.677Z,6.55
2023-05-23T09:55:30.213Z,7.25
2023-05-23T09:58:00.265Z,7.10
2023-05-23T10:00:28.492Z,7.53
2023-05-23T10:03:01.666Z,6.88
2023-05-23T10:05:34.276Z,6.90
2023-05-23T10:08:07.362Z,10.95
2023-05-23T10:10:36.310Z,6.78
2023-05-23T10:13:06.640Z,8.27
2023-05-23T10:15:40.120Z,6.88
2023-05-23T10:18:13.911Z,7.22
2023-05-23T10:20:46.833Z,9.55
2023-05-23T10:23:17.301Z,13.20
2023-05-23T10:25:45.364Z,7.10
2023-05-23T10:28:14.729Z,11.10
2023-05-23T10:30:42.411Z,8.30
2023-05-23T10:33:11.689Z,8.27
2023-05-23T10:35:49.321Z,8.63
2023-05-23T10:38:31.815Z,10.95
2023-05-23T10:41:07.884Z,14.77
2023-05-23T10:43:41.829Z,12.70
2023-05-23T10:46:09.575Z,11.80
2023-05-23T10:48:42.593Z,11.90
2023-05-23T10:51:11.250Z,12.07
2023-05-23T10:53:42.262Z,11.52
2023-05-23T10:56:11.457Z,12.95
2023-05-23T10:58:40.778Z,13.55
2023-05-23T11:01:09.990Z,12.20
2023-05-23T11:03:39.265Z,14.60
2023-05-23T11:06:07.401Z,15.63
2023-05-23T11:08:47.543Z,16.08
2023-05-23T11:11:16.148Z,17.73
2023-05-23T11:14:00.147Z,18.80
2023-05-23T11:16:29.420Z,16.42
2023-05-23T11:19:29.018Z,17.25
2023-05-23T11:21:59.461Z,17.35
2023-05-23T11:24:51.412Z,18.08
2023-05-23T11:27:26.524Z,17.38
2023-05-23T11:30:01.829Z,19.65
2023-05-23T11:32:31.702Z,18.65
2023-05-23T11:35:02.865Z,20.00
2023-05-23T11:37:31.370Z,19.00
2023-05-23T11:40:02.062Z,20.05
2023-05-23T11:42:29.554Z,19.83
2023-05-23T11:44:58.148Z,17.92
2023-05-23T11:47:25.720Z,20.17
2023-05-23T11:49:53.581Z,18.88
2023-05-23T11:52:21.072Z,18.90
2023-05-23T11:54:48.501Z,20.52
2023-05-23T11:57:17.282Z,20.95
2023-05-23T11:59:45.653Z,19.33
2023-05-23T12:02:13.128Z,18.33
2023-05-23T12:04:41.170Z,20.42
2023-05-23T12:07:08.813Z,19.13
2023-05-23T12:09:43.654Z,18.38
2023-05-23T12:12:11.566Z,19.05
2023-05-23T12:14:44.539Z,19.63
2023-05-23T12:17:13.550Z,20.17
2023-05-23T12:19:46.241Z,19.80
2023-05-23T12:22:13.710Z,21.70
2023-05-23T12:24:46.680Z,19.85
2023-05-23T12:27:14.179Z,20.15
2023-05-23T12:29:42.952Z,20.30
2023-05-23T12:32:10.493Z,20.30
2023-05-23T12:34:42.575Z,19.20
2023-05-23T12:37:19.459Z,19.65
2023-05-23T12:39:47.942Z,16.98
2023-05-23T12:42:15.527Z,17.73
2023-05-23T12:44:45.950Z,15.32
2023-05-23T12:47:13.567Z,16.83
2023-05-23T12:49:41.151Z,15.70
2023-05-23T12:52:08.693Z,16.17
2023-05-23T12:54:36.164Z,16.40
2023-05-23T12:57:03.727Z,15.27
2023-05-23T12:59:31.314Z,16.65
2023-05-23T13:02:01.430Z,15.90
2023-05-23T13:04:31.040Z,15.57
2023-05-23T13:06:59.583Z,17.63
2023-05-23T13:09:27.136Z,18.27
2023-05-23T13:11:55.617Z,17.60
2023-05-23T13:14:23.044Z,21.05
2023-05-23T13:16:50.648Z,19.63
2023-05-23T13:19:19.573Z,18.55
2023-05-23T13:21:49.357Z,22.55
2023-05-23T13:24:17.774Z,21.67
2023-05-23T13:26:45.394Z,19.13
2023-05-23T13:29:13.173Z,18.83
2023-05-23T13:31:40.640Z,19.03
2023-05-23T13:34:08.120Z,22.25
2023-05-23T13:36:36.904Z,16.90
2023-05-23T13:39:07.549Z,24.57
2023-05-23T13:41:34.996Z,21.23
2023-05-23T13:44:02.541Z,17.93
2023-05-23T13:46:30.044Z,17.05
2023-05-23T13:48:57.575Z,18.13
2023-05-23T13:51:25.130Z,19.27
2023-05-23T13:53:53.944Z,19.60
2023-05-23T13:56:21.480Z,20.13
2023-05-23T13:58:48.933Z,20.97
2023-05-23T14:01:17.290Z,21.47
2023-05-23T14:03:44.811Z,20.70
2023-05-23T14:06:12.225Z,22.93
2023-05-23T14:08:39.756Z,20.57
2023-05-23T14:11:09.111Z,20.30
2023-05-23T14:13:36.643Z,21.65
2023-05-23T14:16:04.180Z,20.90
2023-05-23T14:18:31.658Z,20.47
2023-05-23T14:20:59.115Z,20.77
2023-05-23T14:23:26.562Z,21.20
2023-05-23T14:25:54.049Z,22.63
2023-05-23T14:28:22.831Z,23.17
2023-05-23T14:30:50.396Z,18.90
2023-05-23T14:33:18.625Z,19.70
2023-05-23T14:35:46.262Z,18.37
2023-05-23T14:38:13.760Z,19.47
2023-05-23T14:40:41.334Z,17.43
2023-05-23T14:43:08.774Z,17.57
2023-05-23T14:45:37.598Z,18.67
2023-05-23T14:48:06.036Z,19.27
2023-05-23T14:50:33.689Z,15.77
2023-05-23T14:53:01.179Z,16.07
2023-05-23T14:55:28.778Z,18.80
2023-05-23T14:57:56.621Z,11.60
2023-05-23T15:00:25.736Z,10.27
2023-05-23T15:02:54.670Z,15.23
2023-05-23T15:05:22.411Z,13.20
2023-05-23T15:07:49.895Z,13.30
2023-05-23T15:10:17.428Z,9.67
2023-05-23T15:12:44.916Z,11.23
2023-05-23T15:15:12.761Z,7.27
2023-05-23T15:17:40.339Z,10.07
2023-05-23T15:20:10.232Z,14.30
2023-05-23T15:22:39.707Z,12.57
2023-05-23T15:25:08.582Z,9.30
2023-05-23T15:27:36.347Z,13.40
2023-05-23T15:30:04.705Z,8.57
2023-05-23T15:32:32.214Z,12.67
2023-05-23T15:34:59.753Z,9.90
2023-05-23T15:37:28.511Z,13.83
2023-05-23T15:39:56.042Z,8.83
2023-05-23T15:42:23.455Z,12.17
2023-05-23T15:44:51.062Z,7.70
2023-05-23T15:47:20.638Z,7.57
2023-05-23T15:49:48.183Z,8.47
2023-05-23T15:52:15.672Z,8.23
2023-05-23T15:54:44.465Z,8.50
2023-05-23T15:57:11.934Z,9.27
2023-05-23T15:59:40.391Z,10.23
2023-05-23T16:02:10.157Z,9.17
2023-05-23T16:04:38.881Z,7.47
2023-05-23T16:07:06.469Z,7.77
2023-05-23T16:09:34.029Z,7.23
2023-05-23T16:12:02.790Z,8.10
2023-05-23T16:14:31.299Z,7.83
2023-05-23T16:17:02.750Z,6.83
2023-05-23T16:19:30.624Z,7.43
2023-05-23T16:21:58.260Z,7.37
2023-05-23T16:24:28.170Z,8.73
2023-05-23T16:26:55.921Z,7.23
2023-05-23T16:29:24.742Z,7.90
2023-05-23T16:31:52.290Z,7.60
2023-05-23T16:34:19.814Z,8.53
2023-05-23T16:36:47.412Z,6.50
2023-05-23T16:39:16.216Z,10.63
2023-05-23T16:41:43.714Z,8.97
2023-05-23T16:44:11.268Z,7.87
2023-05-23T16:46:40.318Z,7.50
2023-05-23T16:49:08.368Z,8.60
2023-05-23T16:51:35.886Z,11.10
2023-05-23T16:54:03.828Z,6.97
2023-05-23T16:56:31.263Z,6.60
2023-05-23T16:58:58.704Z,6.70
2023-05-23T17:01:26.609Z,6.53
2023-05-23T17:03:56.787Z,7.47
2023-05-23T17:06:24.444Z,6.43
2023-05-23T17:08:52.082Z,5.53
2023-05-23T17:11:19.644Z,22.23
2023-05-23T17:13:47.089Z,8.80
2023-05-23T17:16:18.037Z,7.37
2023-05-23T17:18:47.671Z,7.27
2023-05-23T17:21:16.521Z,5.10
2023-05-23T17:23:44.140Z,5.10
2023-05-23T17:26:11.796Z,3.43
2023-05-23T17:28:39.424Z,2.40
2023-05-23T17:31:07.694Z,3.17
2023-05-23T17:33:35.159Z,4.10
2023-05-23T17:36:03.493Z,2.83
2023-05-23T17:38:32.310Z,6.17
2023-05-23T17:41:00.503Z,2.93
2023-05-23T17:43:27.951Z,5.77
2023-05-23T17:45:56.722Z,5.13
2023-05-23T17:48:38.206Z,5.97
2023-05-23T17:51:13.026Z,4.27
2023-05-23T17:53:42.217Z,6.07
2023-05-23T17:56:10.289Z,5.70
2023-05-23T17:58:38.768Z,6.83
2023-05-23T18:01:07.755Z,6.77
2023-05-23T18:03:35.311Z,7.47
2023-05-23T18:06:02.773Z,6.47
2023-05-23T18:08:30.243Z,8.83
2023-05-23T18:10:59.011Z,9.27
2023-05-23T18:13:26.553Z,8.80
2023-05-23T18:15:54.004Z,5.43
2023-05-23T18:18:21.503Z,8.50
2023-05-23T18:20:48.996Z,6.27
2023-05-23T18:23:17.509Z,6.63
2023-05-23T18:25:44.998Z,7.10
2023-05-23T18:28:13.982Z,8.27
2023-05-23T18:30:41.624Z,6.73
2023-05-23T18:33:09.478Z,8.57
2023-05-23T18:35:37.089Z,7.10
2023-05-23T18:38:04.565Z,5.53
2023-05-23T18:40:32.214Z,5.63
2023-05-23T18:42:59.688Z,6.83
2023-05-23T18:45:28.422Z,6.87
2023-05-23T18:47:56.361Z,8.07
2023-05-23T18:50:24.242Z,8.47
2023-05-23T18:52:51.707Z,7.00
2023-05-23T18:55:20.170Z,4.87
2023-05-23T18:57:47.635Z,6.77
2023-05-23T19:00:16.045Z,9.23
2023-05-23T19:02:45.774Z,7.27
2023-05-23T19:05:13.801Z,9.30
2023-05-23T19:07:41.217Z,6.90
2023-05-23T19:10:09.418Z,8.67
2023-05-23T19:12:38.760Z,10.47
2023-05-23T19:15:09.217Z,7.87
2023-05-23T19:17:36.791Z,8.87
2023-05-23T19:20:06.497Z,5.50
2023-05-23T19:22:47.024Z,6.63
2023-05-23T19:25:18.333Z,9.63
2023-05-23T19:27:45.858Z,6.07
2023-05-23T19:30:13.662Z,8.37
2023-05-23T19:32:41.230Z,7.17
2023-05-23T19:35:10.598Z,5.53
2023-05-23T19:37:38.142Z,10.30
2023-05-23T19:40:07.123Z,8.60
2023-05-23T19:42:34.675Z,7.70
2023-05-23T19:45:02.315Z,7.37
2023-05-23T19:47:30.957Z,10.23
2023-05-23T19:49:58.542Z,9.57
2023-05-23T19:52:27.300Z,7.90
2023-05-23T19:54:54.746Z,9.00
2023-05-23T19:57:22.297Z,7.17
2023-05-23T19:59:49.781Z,6.40
2023-05-23T20:02:17.555Z,10.47
2023-05-23T20:04:45.627Z,7.27
2023-05-23T20:07:13.273Z,10.10
2023-05-23T20:09:42.244Z,5.40
2023-05-23T20:12:09.830Z,10.43
2023-05-23T20:14:37.353Z,6.93
2023-05-23T20:17:04.909Z,8.03
2023-05-23T20:19:32.437Z,8.10
2023-05-23T20:21:59.896Z,9.77
2023-05-23T20:24:30.384Z,9.07
2023-05-23T20:27:01.391Z,12.97
2023-05-23T20:29:28.858Z,11.97
2023-05-23T20:31:57.647Z,9.63
2023-05-23T20:34:25.190Z,9.73
2023-05-23T20:36:53.256Z,10.53
2023-05-23T20:39:22.118Z,8.23
2023-05-23T20:41:50.062Z,11.20
2023-05-23T20:44:18.920Z,9.30
2023-05-23T20:46:47.436Z,12.33
2023-05-23T20:49:15.694Z,12.90
2023-05-23T20:51:43.825Z,12.83
2023-05-23T20:54:12.820Z,10.03
2023-05-23T20:56:40.481Z,9.80
2023-05-23T20:59:08.169Z,11.13
2023-05-23T21:01:37.032Z,14.83
2023-05-23T21:04:04.583Z,10.13
2023-05-23T21:06:32.544Z,13.27
2023-05-23T21:09:00.056Z,9.70
2023-05-23T21:11:27.498Z,10.53
2023-05-23T21:13:55.333Z,13.13
2023-05-23T21:16:22.864Z,9.27
2023-05-23T21:18:51.896Z,11.67
2023-05-23T21:21:19.395Z,12.00
2023-05-23T21:23:46.861Z,10.73
2023-05-23T21:26:14.380Z,13.50
2023-05-23T21:28:41.886Z,12.50
2023-05-23T21:31:10.055Z,10.53
2023-05-23T21:33:37.508Z,11.47
2023-05-23T21:36:06.490Z,14.20
2023-05-23T21:38:37.378Z,7.27
2023-05-23T21:41:05.013Z,9.47
2023-05-23T21:43:32.438Z,11.23
2023-05-23T21:45:59.977Z,10.33
2023-05-23T21:48:27.485Z,11.13
2023-05-23T21:50:54.933Z,14.73
2023-05-23T21:53:23.717Z,9.53
2023-05-23T21:55:51.289Z,8.57
2023-05-23T21:58:18.781Z,10.03
2023-05-23T22:00:46.554Z,11.27
2023-05-23T22:03:14.058Z,10.63
2023-05-23T22:05:41.551Z,13.27
2023-05-23T22:08:09.009Z,14.23
2023-05-23T22:10:37.799Z,10.87
2023-05-23T22:13:05.283Z,10.20
2023-05-23T22:15:33.328Z,13.30
2023-05-23T22:18:00.777Z,10.60
2023-05-23T22:20:29.684Z,10.23
2023-05-23T22:22:57.154Z,8.53
2023-05-23T22:25:25.017Z,12.27
2023-05-23T22:27:53.768Z,10.47
2023-05-23T22:30:21.212Z,9.93
2023-05-23T22:32:48.694Z,13.73
2023-05-23T22:35:16.225Z,10.47
2023-05-23T22:37:43.621Z,8.33
2023-05-23T22:40:11.298Z,12.10
2023-05-23T22:42:39.911Z,9.40
2023-05-23T22:45:10.290Z,11.23
2023-05-23T22:47:37.732Z,15.13
2023-05-23T22:50:05.469Z,12.60
2023-05-23T22:52:34.540Z,10.90
2023-05-23T22:55:01.973Z,11.47
2023-05-23T22:57:29.418Z,9.80
2023-05-23T22:59:56.857Z,7.30
2023-05-23T23:02:25.770Z,12.80
2023-05-23T23:04:53.374Z,6.63
2023-05-23T23:07:20.860Z,8.50
2023-05-23T23:09:49.137Z,8.17
2023-05-23T23:12:16.700Z,11.03
2023-05-23T23:14:44.255Z,10.70
2023-05-23T23:17:13.557Z,9.87
2023-05-23T23:19:42.397Z,9.73
2023-05-23T23:22:09.832Z,7.03
2023-05-23T23:24:37.252Z,12.10
2023-05-23T23:27:05.364Z,10.70
2023-05-23T23:29:32.902Z,10.43
2023-05-23T23:32:00.811Z,9.77
2023-05-23T23:34:28.295Z,11.03
2023-05-23T23:36:57.489Z,9.80
2023-05-23T23:39:24.928Z,10.30
2023-05-23T23:41:52.376Z,9.60
2023-05-23T23:44:19.777Z,10.63
2023-05-23T23:46:47.325Z,15.43
2023-05-23T23:49:15.260Z,9.20
2023-05-23T23:51:42.700Z,9.97
2023-05-23T23:54:11.454Z,13.67
2023-05-23T23:56:38.892Z,9.63
2023-05-23T23:59:06.532Z,11.90
